createdAt,value
2018-02-02T00:02:10.396Z,47.80
2018-02-02T00:04:37.527Z,48.80
2018-02-02T00:07:05.588Z,48.00
2018-02-02T00:09:33.656Z,47.70
2018-02-02T00:12:01.569Z,47.90
2018-02-02T00:14:29.477Z,47.30
2018-02-02T00:16:56.652Z,47.70
2018-02-02T00:19:23.779Z,48.40
2018-02-02T00:21:51.760Z,48.20
2018-02-02T00:24:19.677Z,48.00
2018-02-02T00:26:46.856Z,48.10
2018-02-02T00:29:13.988Z,48.60
2018-02-02T00:31:41.891Z,49.40
2018-02-02T00:34:09.913Z,49.30
2018-02-02T00:36:37.912Z,49.20
2018-02-02T00:39:05.811Z,49.10
2018-02-02T00:41:32.945Z,49.10
2018-02-02T00:44:00.093Z,49.30
2018-02-02T00:46:28.056Z,49.40
2018-02-02T00:48:55.984Z,49.30
2018-02-02T00:51:30.516Z,49.70
2018-02-02T00:53:57.694Z,49.60
2018-02-02T00:56:25.594Z,49.30
2018-02-02T00:58:52.720Z,49.30
2018-02-02T01:01:19.853Z,49.10
2018-02-02T01:03:47.748Z,48.80
2018-02-02T01:06:14.910Z,48.70
2018-02-02T01:08:42.136Z,49.10
2018-02-02T01:11:10.108Z,48.40
2018-02-02T01:13:37.249Z,48.30
2018-02-02T01:16:06.052Z,48.60
2018-02-02T01:18:34.018Z,48.30
2018-02-02T01:21:01.917Z,48.30
2018-02-02T01:23:29.983Z,48.30
2018-02-02T01:25:57.120Z,48.50
2018-02-02T01:28:24.297Z,48.10
2018-02-02T01:30:51.429Z,48.10
2018-02-02T01:33:18.564Z,49.30
2018-02-02T01:35:46.536Z,47.80
2018-02-02T01:38:14.432Z,47.90
2018-02-02T01:40:41.564Z,48.00
2018-02-02T01:43:08.733Z,47.90
2018-02-02T01:45:35.864Z,47.90
2018-02-02T01:48:08.784Z,47.80
2018-02-02T01:50:35.920Z,48.20
2018-02-02T01:53:03.049Z,48.10
2018-02-02T01:55:30.222Z,48.20
2018-02-02T01:57:57.351Z,48.00
2018-02-02T02:00:24.476Z,47.70
2018-02-02T02:02:52.377Z,49.00
2018-02-02T02:05:19.616Z,48.70
2018-02-02T02:07:47.521Z,48.40
2018-02-02T02:10:14.688Z,48.30
2018-02-02T02:12:41.824Z,48.00
2018-02-02T02:15:08.968Z,47.80
2018-02-02T02:17:36.100Z,47.80
2018-02-02T02:20:03.236Z,47.80
2018-02-02T02:22:31.209Z,48.00
2018-02-02T02:24:59.208Z,48.30
2018-02-02T02:27:26.341Z,48.90
2018-02-02T02:29:53.468Z,48.30
2018-02-02T02:32:21.385Z,49.10
2018-02-02T02:34:48.517Z,49.70
2018-02-02T02:37:15.690Z,49.60
2018-02-02T02:39:43.620Z,49.30
2018-02-02T02:42:11.516Z,49.00
2018-02-02T02:44:38.752Z,49.00
2018-02-02T02:47:06.713Z,49.30
2018-02-02T02:49:34.648Z,49.80
2018-02-02T02:52:01.800Z,49.70
2018-02-02T02:54:28.961Z,49.50
2018-02-02T02:56:56.109Z,50.10
2018-02-02T02:59:24.050Z,49.70
2018-02-02T03:01:51.188Z,49.00
2018-02-02T03:04:18.333Z,49.30
2018-02-02T03:06:45.504Z,49.80
2018-02-02T03:09:12.777Z,49.70
2018-02-02T03:11:39.945Z,49.20
2018-02-02T03:14:07.841Z,49.00
2018-02-02T03:16:34.992Z,48.60
2018-02-02T03:19:02.178Z,48.70
2018-02-02T03:21:29.316Z,48.70
2018-02-02T03:23:56.450Z,49.10
2018-02-02T03:26:23.584Z,49.80
2018-02-02T03:28:51.528Z,48.90
2018-02-02T03:31:18.704Z,48.90
2018-02-02T03:33:46.677Z,48.40
2018-02-02T03:36:13.925Z,48.40
2018-02-02T03:38:41.905Z,48.20
2018-02-02T03:41:09.155Z,48.10
2018-02-02T03:43:36.304Z,48.20
2018-02-02T03:46:04.278Z,47.90
2018-02-02T03:48:31.425Z,47.80
2018-02-02T03:50:59.325Z,47.80
2018-02-02T03:53:26.457Z,47.80
2018-02-02T03:55:53.592Z,48.60
2018-02-02T03:58:20.848Z,48.80
2018-02-02T04:00:48.816Z,48.50
2018-02-02T04:03:16.752Z,48.00
2018-02-02T04:05:43.884Z,48.00
2018-02-02T04:08:11.056Z,48.60
2018-02-02T04:10:38.240Z,47.70
2018-02-02T04:13:06.208Z,47.80
2018-02-02T04:15:34.109Z,48.00
2018-02-02T04:18:01.329Z,47.90
2018-02-02T04:20:29.225Z,47.70
2018-02-02T04:22:56.393Z,47.60
2018-02-02T04:25:23.536Z,47.80
2018-02-02T04:27:50.708Z,47.70
2018-02-02T04:30:17.846Z,48.00
2018-02-02T04:32:45.057Z,47.80
2018-02-02T04:35:12.188Z,48.50
2018-02-02T04:37:40.124Z,48.60
2018-02-02T04:40:07.260Z,48.00
2018-02-02T04:42:34.391Z,49.00
2018-02-02T04:45:01.633Z,48.80
2018-02-02T04:47:28.764Z,49.00
2018-02-02T04:49:56.751Z,49.40
2018-02-02T04:52:23.900Z,49.40
2018-02-02T04:54:51.794Z,49.60
2018-02-02T04:57:18.925Z,49.60
2018-02-02T04:59:46.101Z,49.80
2018-02-02T05:02:13.232Z,49.60
2018-02-02T05:04:40.476Z,49.10
2018-02-02T05:07:08.377Z,49.80
2018-02-02T05:09:35.516Z,49.00
2018-02-02T05:12:02.676Z,49.20
2018-02-02T05:14:29.842Z,49.60
2018-02-02T05:16:57.009Z,49.30
2018-02-02T05:19:24.144Z,49.50
2018-02-02T05:21:51.316Z,49.50
2018-02-02T05:24:18.452Z,48.60
2018-02-02T05:26:45.580Z,49.30
2018-02-02T05:29:12.716Z,48.80
2018-02-02T05:31:39.857Z,49.70
2018-02-02T05:34:07.029Z,48.70
2018-02-02T05:36:34.161Z,48.30
2018-02-02T05:39:01.305Z,47.80
2018-02-02T05:41:29.200Z,47.80
2018-02-02T05:43:56.414Z,47.80
2018-02-02T05:46:23.536Z,47.70
2018-02-02T05:48:50.674Z,48.10
2018-02-02T05:51:17.823Z,47.70
2018-02-02T05:53:44.954Z,47.50
2018-02-02T05:56:12.091Z,47.40
2018-02-02T05:58:39.262Z,47.30
2018-02-02T06:01:06.393Z,47.40
2018-02-02T06:03:33.564Z,48.00
2018-02-02T06:06:00.704Z,47.40
2018-02-02T06:08:27.836Z,47.10
2018-02-02T06:10:54.972Z,47.30
2018-02-02T06:13:22.866Z,48.00
2018-02-02T06:15:50.001Z,47.90
2018-02-02T06:18:17.936Z,47.60
2018-02-02T06:20:45.069Z,47.60
2018-02-02T06:23:12.200Z,47.70
2018-02-02T06:25:39.333Z,47.40
2018-02-02T06:28:06.478Z,46.90
2018-02-02T06:30:33.604Z,46.90
2018-02-02T06:33:01.517Z,47.00
2018-02-02T06:35:28.746Z,46.70
2018-02-02T06:37:55.882Z,46.70
2018-02-02T06:40:23.783Z,46.60
2018-02-02T06:42:50.913Z,46.40
2018-02-02T06:45:18.815Z,46.70
2018-02-02T06:47:45.947Z,46.70
2018-02-02T06:50:13.084Z,47.20
2018-02-02T06:52:40.215Z,46.60
2018-02-02T06:55:09.129Z,46.60
2018-02-02T06:57:36.277Z,46.50
2018-02-02T07:00:04.174Z,46.80
2018-02-02T07:02:31.304Z,46.70
2018-02-02T07:04:58.437Z,46.80
2018-02-02T07:07:26.330Z,46.80
2018-02-02T07:09:53.493Z,46.70
2018-02-02T07:12:20.673Z,47.00
2018-02-02T07:14:47.800Z,46.70
2018-02-02T07:17:15.041Z,46.70
2018-02-02T07:19:42.655Z,46.80
2018-02-02T07:22:09.833Z,46.60
2018-02-02T07:24:37.807Z,46.60
2018-02-02T07:27:05.777Z,46.50
2018-02-02T07:29:32.954Z,46.60
2018-02-02T07:32:00.181Z,46.50
2018-02-02T07:34:27.344Z,46.60
2018-02-02T07:36:54.485Z,46.80
2018-02-02T07:39:21.615Z,47.40
2018-02-02T07:41:49.601Z,48.00
2018-02-02T07:44:17.577Z,48.00
2018-02-02T07:46:44.726Z,48.00
2018-02-02T07:49:11.977Z,47.50
2018-02-02T07:51:39.105Z,46.90
2018-02-02T07:54:06.285Z,46.90
2018-02-02T07:56:33.413Z,47.80
2018-02-02T07:59:01.303Z,46.90
2018-02-02T08:01:28.433Z,46.90
2018-02-02T08:03:56.337Z,46.70
2018-02-02T08:06:23.473Z,46.60
2018-02-02T08:08:50.622Z,47.20
2018-02-02T08:11:17.769Z,47.90
2018-02-02T08:13:44.897Z,47.00
2018-02-02T08:16:12.883Z,46.70
2018-02-02T08:18:40.781Z,46.50
2018-02-02T08:21:07.913Z,46.50
2018-02-02T08:23:35.052Z,46.90
2018-02-02T08:26:02.956Z,46.80
2018-02-02T08:28:30.132Z,46.80
2018-02-02T08:30:57.264Z,46.60
2018-02-02T08:33:24.405Z,46.60
2018-02-02T08:35:51.534Z,46.80
2018-02-02T08:38:18.788Z,46.70
2018-02-02T08:40:45.922Z,46.80
2018-02-02T08:43:13.828Z,47.60
2018-02-02T08:45:40.964Z,47.50
2018-02-02T08:48:08.102Z,47.60
2018-02-02T08:50:36.076Z,46.80
2018-02-02T08:53:03.213Z,46.80
2018-02-02T08:55:31.116Z,46.40
2018-02-02T08:57:58.810Z,46.30
2018-02-02T09:00:25.952Z,46.70
2018-02-02T09:02:53.085Z,46.50
2018-02-02T09:05:20.220Z,46.50
2018-02-02T09:07:47.349Z,47.40
2018-02-02T09:10:15.264Z,47.40
2018-02-02T09:12:42.395Z,47.30
2018-02-02T09:15:09.564Z,46.00
2018-02-02T09:17:36.693Z,46.20
2018-02-02T09:20:03.829Z,46.30
2018-02-02T09:22:31.732Z,46.40
2018-02-02T09:24:58.864Z,46.40
2018-02-02T09:27:25.625Z,46.70
2018-02-02T09:29:52.822Z,48.20
2018-02-02T09:32:20.728Z,47.90
2018-02-02T09:34:47.910Z,47.90
2018-02-02T09:37:15.085Z,46.40
2018-02-02T09:39:42.222Z,47.00
2018-02-02T09:42:09.393Z,47.60
2018-02-02T09:44:36.529Z,45.90
2018-02-02T09:47:03.698Z,46.10
2018-02-02T09:49:30.940Z,46.20
2018-02-02T09:51:58.113Z,46.40
2018-02-02T09:54:26.061Z,46.80
2018-02-02T09:56:53.193Z,46.60
2018-02-02T09:59:20.401Z,47.00
2018-02-02T10:01:47.529Z,47.10
2018-02-02T10:04:15.428Z,47.00
2018-02-02T10:06:42.564Z,46.90
2018-02-02T10:09:10.460Z,46.80
2018-02-02T10:11:37.593Z,46.80
2018-02-02T10:14:04.773Z,47.10
2018-02-02T10:16:31.938Z,46.70
2018-02-02T10:18:59.073Z,46.30
2018-02-02T10:21:26.294Z,46.80
2018-02-02T10:23:53.480Z,47.60
2018-02-02T10:26:20.614Z,47.80
2018-02-02T10:28:47.788Z,46.60
2018-02-02T10:31:14.933Z,46.10
2018-02-02T10:33:42.081Z,47.10
2018-02-02T10:36:09.216Z,46.80
2018-02-02T10:38:36.352Z,46.70
2018-02-02T10:41:03.491Z,47.30
2018-02-02T10:43:31.397Z,47.10
2018-02-02T10:45:58.533Z,47.10
2018-02-02T10:48:25.673Z,47.40
2018-02-02T10:50:52.809Z,47.10
2018-02-02T10:53:20.723Z,46.90
2018-02-02T10:55:47.864Z,46.80
2018-02-02T10:58:16.558Z,47.40
2018-02-02T11:00:49.546Z,47.30
2018-02-02T11:03:17.483Z,46.30
2018-02-02T11:05:45.385Z,45.90
2018-02-02T11:08:12.520Z,46.00
2018-02-02T11:10:39.728Z,45.60
2018-02-02T11:13:06.864Z,45.30
2018-02-02T11:15:34.005Z,45.10
2018-02-02T11:18:01.140Z,45.40
2018-02-02T11:20:28.308Z,45.20
2018-02-02T11:22:55.447Z,46.70
2018-02-02T11:25:22.593Z,45.50
2018-02-02T11:27:49.782Z,45.50
2018-02-02T11:30:16.924Z,45.00
2018-02-02T11:32:44.101Z,46.00
2018-02-02T11:35:12.106Z,46.80
2018-02-02T11:37:39.985Z,46.90
2018-02-02T11:40:07.132Z,46.90
2018-02-02T11:42:34.297Z,47.00
2018-02-02T11:45:01.754Z,46.70
2018-02-02T11:47:29.707Z,45.70
2018-02-02T11:49:56.837Z,45.50
2018-02-02T11:52:24.004Z,45.60
2018-02-02T11:54:51.129Z,46.00
2018-02-02T11:57:19.081Z,46.00
2018-02-02T11:59:46.297Z,46.00
2018-02-02T12:02:13.437Z,46.80
2018-02-02T12:04:40.570Z,46.10
2018-02-02T12:07:07.701Z,47.00
2018-02-02T12:09:35.654Z,46.20
2018-02-02T12:12:02.780Z,46.20
2018-02-02T12:14:29.959Z,47.20
2018-02-02T12:16:57.100Z,46.40
2018-02-02T12:19:24.238Z,46.10
2018-02-02T12:21:57.240Z,46.70
2018-02-02T12:24:30.184Z,46.80
2018-02-02T12:27:03.001Z,47.30
2018-02-02T12:29:35.900Z,46.60
2018-02-02T12:32:17.940Z,46.00
2018-02-02T12:34:45.616Z,46.30
2018-02-02T12:37:12.744Z,46.00
2018-02-02T12:39:40.649Z,45.90
2018-02-02T12:42:07.789Z,45.80
2018-02-02T12:44:34.945Z,46.10
2018-02-02T12:47:02.123Z,45.00
2018-02-02T12:49:30.185Z,46.60
2018-02-02T12:51:57.323Z,45.70
2018-02-02T12:54:24.476Z,46.30
2018-02-02T12:56:51.605Z,46.00
2018-02-02T12:59:18.737Z,45.80
2018-02-02T13:01:46.641Z,45.60
2018-02-02T13:04:13.809Z,45.50
2018-02-02T13:06:40.943Z,45.70
2018-02-02T13:09:08.135Z,46.00
2018-02-02T13:11:36.185Z,45.90
2018-02-02T13:14:03.326Z,46.30
2018-02-02T13:16:30.478Z,46.90
2018-02-02T13:18:57.615Z,45.80
2018-02-02T13:21:24.753Z,46.40
2018-02-02T13:23:51.885Z,45.40
2018-02-02T13:26:19.816Z,47.40
2018-02-02T13:28:46.944Z,47.40
2018-02-02T13:31:14.113Z,46.40
2018-02-02T13:33:41.240Z,46.70
2018-02-02T13:36:08.400Z,45.90
2018-02-02T13:38:35.538Z,45.70
2018-02-02T13:41:02.708Z,46.00
2018-02-02T13:43:29.841Z,46.30
2018-02-02T13:45:57.005Z,45.00
2018-02-02T13:48:24.163Z,45.40
2018-02-02T13:50:51.306Z,45.70
2018-02-02T13:53:18.442Z,45.80
2018-02-02T13:55:45.605Z,45.70
2018-02-02T13:58:12.736Z,45.30
2018-02-02T14:00:39.869Z,46.30
2018-02-02T14:03:07.774Z,45.90
2018-02-02T14:05:34.928Z,45.80
2018-02-02T14:08:02.064Z,46.40
2018-02-02T14:10:29.197Z,45.90
2018-02-02T14:12:57.094Z,46.60
2018-02-02T14:15:24.232Z,46.50
2018-02-02T14:17:51.365Z,45.90
2018-02-02T14:20:18.499Z,45.80
2018-02-02T14:22:46.410Z,46.00
2018-02-02T14:25:13.549Z,46.00
2018-02-02T14:27:40.684Z,45.80
2018-02-02T14:30:08.582Z,46.00
2018-02-02T14:32:35.735Z,46.00
2018-02-02T14:35:02.878Z,46.40
2018-02-02T14:37:30.012Z,46.10
2018-02-02T14:39:57.185Z,46.40
2018-02-02T14:42:24.320Z,46.20
2018-02-02T14:44:51.452Z,46.20
2018-02-02T14:47:19.357Z,46.40
2018-02-02T14:49:46.502Z,46.30
2018-02-02T14:52:13.640Z,46.40
2018-02-02T14:54:40.774Z,46.40
2018-02-02T14:57:08.673Z,46.40
2018-02-02T14:59:35.872Z,46.40
2018-02-02T15:02:03.009Z,46.50
2018-02-02T15:04:30.144Z,46.50
2018-02-02T15:06:57.424Z,46.80
2018-02-02T15:09:24.559Z,46.60
2018-02-02T15:11:51.697Z,46.70
2018-02-02T15:14:18.845Z,46.70
2018-02-02T15:16:45.985Z,46.60
2018-02-02T15:19:13.153Z,46.60
2018-02-02T15:21:40.290Z,46.80
2018-02-02T15:24:07.473Z,47.00
2018-02-02T15:26:34.612Z,47.10
2018-02-02T15:29:01.741Z,47.50
2018-02-02T15:31:28.873Z,47.00
2018-02-02T15:33:56.005Z,47.00
2018-02-02T15:36:23.908Z,47.30
2018-02-02T15:38:51.047Z,47.20
2018-02-02T15:41:18.221Z,46.90
2018-02-02T15:43:45.364Z,47.20
2018-02-02T15:46:12.499Z,47.10
2018-02-02T15:48:39.637Z,47.30
2018-02-02T15:51:07.534Z,47.50
2018-02-02T15:53:34.728Z,47.50
2018-02-02T15:56:01.865Z,47.10
2018-02-02T15:58:28.997Z,47.00
2018-02-02T16:00:56.137Z,47.10
2018-02-02T16:03:23.325Z,47.10
2018-02-02T16:05:50.458Z,47.40
2018-02-02T16:08:17.593Z,47.60
2018-02-02T16:10:44.749Z,47.50
2018-02-02T16:13:11.885Z,47.30
2018-02-02T16:15:39.020Z,47.30
2018-02-02T16:18:06.201Z,47.40
2018-02-02T16:20:33.336Z,47.60
2018-02-02T16:23:00.471Z,47.80
2018-02-02T16:25:27.659Z,47.60
2018-02-02T16:27:54.790Z,47.40
2018-02-02T16:30:22.872Z,47.20
2018-02-02T16:32:50.064Z,47.30
2018-02-02T16:35:17.302Z,47.30
2018-02-02T16:37:44.440Z,47.60
2018-02-02T16:40:11.580Z,47.30
2018-02-02T16:42:38.732Z,47.50
2018-02-02T16:45:05.871Z,47.90
2018-02-02T16:47:33.017Z,47.70
2018-02-02T16:50:00.188Z,47.10
2018-02-02T16:52:27.332Z,47.40
2018-02-02T16:54:54.533Z,47.30
2018-02-02T16:57:22.444Z,48.10
2018-02-02T16:59:49.613Z,47.50
2018-02-02T17:02:16.755Z,47.50
2018-02-02T17:04:43.886Z,47.50
2018-02-02T17:07:11.057Z,48.00
2018-02-02T17:09:38.200Z,48.20
2018-02-02T17:12:05.338Z,48.20
2018-02-02T17:14:32.561Z,48.40
2018-02-02T17:17:00.506Z,49.10
2018-02-02T17:19:27.645Z,48.40
2018-02-02T17:21:54.779Z,48.20
2018-02-02T17:24:21.924Z,48.50
2018-02-02T17:26:49.124Z,48.40
2018-02-02T17:29:16.292Z,48.50
2018-02-02T17:31:44.211Z,48.50
2018-02-02T17:34:11.376Z,48.50
2018-02-02T17:36:39.288Z,48.90
2018-02-02T17:39:07.233Z,48.70
2018-02-02T17:41:34.381Z,48.70
2018-02-02T17:44:01.513Z,48.50
2018-02-02T17:46:28.650Z,48.50
2018-02-02T17:48:55.786Z,48.40
2018-02-02T17:51:22.924Z,48.10
2018-02-02T17:53:50.077Z,48.90
2018-02-02T17:56:17.247Z,48.60
2018-02-02T17:58:44.374Z,48.70
2018-02-02T18:01:16.406Z,48.50
2018-02-02T18:03:43.629Z,48.40
2018-02-02T18:06:11.708Z,48.60
2018-02-02T18:08:38.884Z,49.20
2018-02-02T18:11:06.018Z,48.90
2018-02-02T18:13:33.206Z,49.00
2018-02-02T18:16:01.109Z,49.10
2018-02-02T18:18:28.241Z,49.00
2018-02-02T18:20:55.373Z,48.70
2018-02-02T18:23:23.304Z,48.90
2018-02-02T18:25:50.477Z,48.90
2018-02-02T18:28:17.609Z,48.80
2018-02-02T18:30:44.801Z,49.30
2018-02-02T18:33:12.745Z,49.30
2018-02-02T18:35:39.944Z,49.20
2018-02-02T18:38:07.069Z,49.10
2018-02-02T18:40:34.980Z,49.00
2018-02-02T18:43:02.124Z,49.00
2018-02-02T18:45:29.284Z,48.80
2018-02-02T18:47:56.457Z,48.80
2018-02-02T18:50:23.998Z,48.80
2018-02-02T18:52:51.168Z,48.80
2018-02-02T18:55:18.303Z,48.60
2018-02-02T18:57:45.492Z,49.40
2018-02-02T19:00:12.624Z,48.70
2018-02-02T19:02:39.757Z,48.60
2018-02-02T19:05:06.906Z,49.00
2018-02-02T19:07:34.052Z,48.90
2018-02-02T19:10:01.192Z,48.90
2018-02-02T19:12:28.332Z,49.30
2018-02-02T19:14:55.504Z,49.30
2018-02-02T19:17:22.638Z,49.00
2018-02-02T19:19:49.774Z,48.80
2018-02-02T19:22:17.677Z,48.90
2018-02-02T19:24:44.856Z,48.90
2018-02-02T19:27:11.989Z,49.10
2018-02-02T19:29:39.130Z,48.80
2018-02-02T19:32:06.329Z,49.40
2018-02-02T19:34:34.238Z,49.00
2018-02-02T19:37:01.372Z,49.70
2018-02-02T19:39:28.501Z,49.10
2018-02-02T19:41:56.518Z,49.40
2018-02-02T19:44:23.656Z,49.40
2018-02-02T19:46:50.825Z,49.10
2018-02-02T19:49:17.968Z,49.20
2018-02-02T19:51:45.104Z,49.00
2018-02-02T19:54:12.294Z,49.30
2018-02-02T19:56:39.425Z,49.40
2018-02-02T19:59:06.569Z,49.50
2018-02-02T20:01:33.711Z,49.50
2018-02-02T20:04:00.849Z,49.40
2018-02-02T20:06:27.975Z,49.40
2018-02-02T20:08:55.117Z,49.50
2018-02-02T20:11:22.253Z,49.40
2018-02-02T20:13:49.389Z,49.40
2018-02-02T20:16:16.533Z,49.40
2018-02-02T20:18:43.667Z,49.50
2018-02-02T20:21:10.800Z,49.40
2018-02-02T20:23:38.729Z,49.40
2018-02-02T20:26:06.563Z,49.40
2018-02-02T20:28:33.725Z,49.30
2018-02-02T20:31:00.893Z,49.20
2018-02-02T20:33:28.028Z,49.40
2018-02-02T20:35:55.244Z,49.40
2018-02-02T20:38:23.181Z,49.00
2018-02-02T20:40:50.321Z,49.00
2018-02-02T20:43:17.473Z,49.00
2018-02-02T20:45:44.640Z,49.30
2018-02-02T20:48:11.774Z,49.00
2018-02-02T20:50:39.036Z,49.50
2018-02-02T20:53:11.178Z,49.50
2018-02-02T20:55:38.376Z,49.40
2018-02-02T20:58:05.557Z,49.40
2018-02-02T21:00:34.498Z,49.50
2018-02-02T21:03:01.643Z,49.50
2018-02-02T21:05:28.813Z,49.40
2018-02-02T21:07:55.954Z,49.50
2018-02-02T21:10:23.281Z,49.70
2018-02-02T21:12:50.449Z,49.50
2018-02-02T21:15:17.592Z,49.50
2018-02-02T21:17:44.813Z,49.50
2018-02-02T21:20:12.718Z,49.60
2018-02-02T21:22:39.922Z,49.60
2018-02-02T21:25:07.827Z,49.70
2018-02-02T21:27:35.670Z,49.70
2018-02-02T21:30:03.613Z,49.60
2018-02-02T21:32:31.545Z,49.90
2018-02-02T21:34:58.825Z,49.90
2018-02-02T21:37:26.050Z,49.70
2018-02-02T21:39:53.283Z,49.90
2018-02-02T21:42:21.386Z,50.30
2018-02-02T21:44:48.552Z,50.00
2018-02-02T21:47:15.696Z,50.20
2018-02-02T21:49:43.509Z,50.10
2018-02-02T21:52:11.420Z,49.90
2018-02-02T21:54:38.556Z,49.90
2018-02-02T21:57:05.883Z,49.90
2018-02-02T21:59:33.083Z,50.20
2018-02-02T22:02:00.263Z,50.00
2018-02-02T22:04:27.404Z,49.90
2018-02-02T22:06:54.590Z,49.90
2018-02-02T22:09:22.515Z,49.80
2018-02-02T22:11:49.697Z,49.80
2018-02-02T22:14:17.630Z,50.00
2018-02-02T22:16:44.775Z,49.90
2018-02-02T22:19:11.933Z,50.00
2018-02-02T22:21:39.120Z,50.00
2018-02-02T22:24:07.031Z,49.90
2018-02-02T22:26:34.695Z,49.90
2018-02-02T22:29:01.891Z,49.90
2018-02-02T22:31:29.020Z,50.20
2018-02-02T22:33:56.161Z,50.10
2018-02-02T22:36:23.297Z,50.10
2018-02-02T22:38:50.469Z,49.90
2018-02-02T22:41:17.602Z,50.10
2018-02-02T22:43:44.757Z,50.10
2018-02-02T22:46:11.930Z,50.20
2018-02-02T22:48:39.061Z,50.20
2018-02-02T22:51:06.945Z,50.20
2018-02-02T22:53:34.094Z,50.20
2018-02-02T22:56:01.397Z,50.00
2018-02-02T22:58:29.415Z,50.10
2018-02-02T23:00:56.739Z,50.10
2018-02-02T23:03:24.252Z,50.40
2018-02-02T23:05:52.643Z,50.30
2018-02-02T23:08:20.788Z,50.50
2018-02-02T23:10:47.920Z,50.50
2018-02-02T23:13:15.074Z,50.20
2018-02-02T23:15:42.217Z,50.10
2018-02-02T23:18:09.362Z,50.10
2018-02-02T23:20:36.493Z,50.10
2018-02-02T23:23:03.623Z,50.00
2018-02-02T23:25:31.538Z,50.40
2018-02-02T23:27:58.684Z,50.30
2018-02-02T23:30:26.767Z,50.30
2018-02-02T23:32:53.916Z,50.80
2018-02-02T23:35:22.717Z,50.50
2018-02-02T23:37:49.904Z,50.20
2018-02-02T23:40:17.045Z,50.10
2018-02-02T23:42:44.272Z,50.40
2018-02-02T23:45:11.403Z,50.20
2018-02-02T23:47:38.541Z,50.30
2018-02-02T23:50:05.726Z,50.30
2018-02-02T23:52:32.861Z,50.20
2018-02-02T23:55:00.017Z,50.30
2018-02-02T23:57:27.203Z,50.10
2018-02-02T23:59:54.381Z,50.50
